Time;durP1;ratioP1;P1;durP2;ratioP2;P2;SDS_P1;SDS_P2;PMS_P1;PMS_P2;Temp;Humidity;BMP_temperature;BMP_pressure;BME280_temperature;BME280_humidity;BME280_pressure;Samples;Min_cycle;Max_cycle;Signal;HPM_P1;HPM_P2
2022/01/27 00:04:04;;;;;;;9.02;3.40;;;19.70;50.80;;;;;;4398725;32;20181;-63
2022/01/27 00:06:34;;;;;;;11.23;3.28;;;19.70;50.80;;;;;;4398544;32;20079;-63
2022/01/27 00:09:11;;;;;;;9.07;3.33;;;19.70;50.80;;;;;;4398236;32;20085;-63
2022/01/27 00:11:39;;;;;;;11.50;3.55;;;19.60;50.80;;;;;;4398181;32;20087;-63
2022/01/27 00:14:05;;;;;;;11.40;3.83;;;19.60;50.80;;;;;;4397970;32;20098;-63
2022/01/27 00:16:38;;;;;;;9.95;3.58;;;19.60;50.80;;;;;;4398333;32;20089;-63
2022/01/27 00:19:04;;;;;;;9.77;3.28;;;19.60;50.80;;;;;;4398223;32;20479;-62
2022/01/27 00:21:31;;;;;;;11.13;3.50;;;19.60;50.80;;;;;;4398359;32;20086;-63
2022/01/27 00:23:57;;;;;;;7.15;3.00;;;19.60;50.80;;;;;;4398321;32;20083;-63
2022/01/27 00:26:24;;;;;;;12.05;3.40;;;19.50;50.80;;;;;;4398419;32;20087;-62
2022/01/27 00:28:50;;;;;;;8.77;3.22;;;19.50;50.80;;;;;;4398410;32;20083;-63
2022/01/27 00:31:18;;;;;;;7.90;3.40;;;19.50;50.80;;;;;;4397860;32;20093;-63
2022/01/27 00:33:45;;;;;;;9.70;3.40;;;19.50;50.80;;;;;;4398360;32;20221;-63
2022/01/27 00:36:11;;;;;;;7.50;3.25;;;19.50;50.80;;;;;;4397898;32;20444;-63
2022/01/27 00:38:37;;;;;;;9.18;3.72;;;19.50;50.80;;;;;;4397909;32;20122;-63
2022/01/27 00:41:04;;;;;;;10.85;3.30;;;19.50;50.80;;;;;;4397931;32;20083;-63
2022/01/27 00:43:36;;;;;;;10.10;3.88;;;19.40;50.70;;;;;;4400655;32;20091;-63
2022/01/27 00:46:03;;;;;;;8.88;3.15;;;19.40;50.70;;;;;;4400975;32;20141;-63
2022/01/27 00:48:29;;;;;;;8.50;3.33;;;19.40;50.70;;;;;;4401179;32;20087;-63
2022/01/27 00:50:59;;;;;;;8.25;3.30;;;19.40;50.70;;;;;;4401174;32;20138;-63
2022/01/27 00:53:46;;;;;;;9.27;3.08;;;19.40;50.70;;;;;;4400974;32;20516;-63
2022/01/27 00:56:31;;;;;;;7.53;3.22;;;19.40;50.70;;;;;;4400820;32;20070;-63
2022/01/27 00:59:16;;;;;;;5.55;2.95;;;19.30;50.60;;;;;;4401169;32;20090;-63
2022/01/27 01:01:48;;;;;;;9.05;2.92;;;19.30;50.60;;;;;;4400989;32;20528;-63
2022/01/27 01:04:14;;;;;;;9.27;3.55;;;19.30;50.70;;;;;;4400880;32;20071;-63
2022/01/27 01:06:44;;;;;;;9.18;3.70;;;19.30;50.70;;;;;;4401272;32;20099;-63
2022/01/27 01:14:47;;;;;;;8.57;3.80;;;19.20;50.60;;;;;;4400691;32;20500;-63
2022/01/27 01:31:12;;;;;;;6.57;3.65;;;19.20;50.40;;;;;;4400544;32;20106;-63
2022/01/27 01:33:26;;;;;;;7.90;3.63;;;19.20;50.50;;;;;;4396897;32;20079;-63
2022/01/27 01:36:01;;;;;;;;;;;19.20;50.40;;;;;;4401184;32;20380;-63
2022/01/27 01:38:29;;;;;;;10.00;3.88;;;19.10;50.30;;;;;;4400476;32;20053;-63
2022/01/27 01:40:56;;;;;;;8.18;3.60;;;19.10;50.40;;;;;;4400567;32;20087;-63
2022/01/27 01:43:22;;;;;;;8.43;3.50;;;19.10;50.30;;;;;;4400083;32;20229;-63
2022/01/27 01:45:49;;;;;;;8.55;3.90;;;19.10;50.30;;;;;;4400591;32;20523;-63
2022/01/27 01:48:17;;;;;;;8.55;3.55;;;19.10;50.30;;;;;;4399744;32;20067;-63
2022/01/27 01:50:43;;;;;;;8.38;4.13;;;19.10;50.30;;;;;;4400201;32;20076;-63
2022/01/27 01:53:10;;;;;;;9.00;3.95;;;19.00;50.20;;;;;;4399818;32;20114;-63
2022/01/27 01:55:37;;;;;;;10.23;4.40;;;19.00;50.30;;;;;;4400366;32;20125;-63
2022/01/27 01:58:03;;;;;;;7.97;3.33;;;19.00;50.20;;;;;;4399881;32;20079;-63
2022/01/27 02:00:29;;;;;;;6.35;3.45;;;19.00;50.20;;;;;;4399529;32;20127;-63
2022/01/27 02:02:56;;;;;;;8.98;3.60;;;19.00;50.20;;;;;;4400177;32;20225;-63
2022/01/27 02:05:27;;;;;;;8.73;3.33;;;19.00;50.20;;;;;;4399793;32;20091;-63
2022/01/27 02:08:30;;;;;;;7.05;3.83;;;19.00;50.20;;;;;;4385749;32;20091;-63
2022/01/27 02:19:15;;;;;;;7.75;3.80;;;18.90;50.00;;;;;;4399941;32;20410;-63
2022/01/27 02:22:00;;;;;;;6.90;3.97;;;18.90;50.10;;;;;;4399874;32;20118;-63
2022/01/27 02:24:28;;;;;;;10.35;4.22;;;18.90;50.10;;;;;;4398758;32;20091;-63
2022/01/27 02:26:55;;;;;;;6.30;4.00;;;18.90;50.00;;;;;;4399807;32;20079;-63
2022/01/27 02:29:22;;;;;;;8.55;4.10;;;18.90;50.00;;;;;;4399700;32;20418;-63
2022/01/27 02:31:49;;;;;;;7.32;3.95;;;18.90;50.00;;;;;;4398714;32;20102;-63
2022/01/27 02:34:15;;;;;;;7.88;3.85;;;18.90;50.00;;;;;;4386112;32;20091;-63
2022/01/27 02:36:41;;;;;;;6.32;3.35;;;18.90;50.00;;;;;;4399855;32;20083;-63
2022/01/27 02:39:08;;;;;;;7.90;4.50;;;18.90;50.00;;;;;;4399652;32;20111;-63
2022/01/27 02:41:46;;;;;;;6.30;3.63;;;18.90;50.00;;;;;;4398933;32;20093;-63
2022/01/27 02:44:46;;;;;;;7.38;3.40;;;18.80;49.80;;;;;;4399944;32;20075;-63
2022/01/27 02:47:16;;;;;;;6.70;4.00;;;18.80;49.70;;;;;;4399873;32;20529;-63
2022/01/27 02:49:43;;;;;;;7.07;4.07;;;18.80;49.80;;;;;;4399145;32;20075;-63
2022/01/27 02:52:10;;;;;;;7.00;3.80;;;18.80;49.90;;;;;;4399361;32;20660;-63
2022/01/27 02:54:36;;;;;;;6.07;3.97;;;18.80;49.90;;;;;;4399188;32;20071;-63
2022/01/27 02:57:03;;;;;;;7.78;3.72;;;18.80;49.80;;;;;;4399873;32;20087;-63
2022/01/27 02:59:32;;;;;;;6.72;3.80;;;18.80;49.80;;;;;;4398789;32;20082;-63
2022/01/27 03:01:58;;;;;;;8.85;4.63;;;18.80;50.70;;;;;;4399116;32;20109;-63
2022/01/27 03:04:24;;;;;;;6.82;4.28;;;18.80;49.80;;;;;;4385119;32;20199;-63
2022/01/27 03:06:51;;;;;;;8.18;4.18;;;18.70;49.70;;;;;;4398859;32;20101;-63
2022/01/27 03:09:17;;;;;;;7.28;4.38;;;18.70;49.70;;;;;;4398830;32;20071;-63
2022/01/27 03:11:47;;;;;;;7.60;4.32;;;18.70;49.70;;;;;;4398484;32;20253;-63
2022/01/27 03:14:15;;;;;;;7.95;4.35;;;18.70;49.70;;;;;;4399469;32;20075;-63
2022/01/27 03:16:42;;;;;;;6.75;4.00;;;18.70;49.60;;;;;;4398901;32;20249;-63
2022/01/27 03:19:08;;;;;;;7.63;4.13;;;18.70;49.70;;;;;;4385225;32;20530;-63
2022/01/27 03:21:34;;;;;;;6.70;4.38;;;18.70;49.60;;;;;;4398644;32;20123;-63
2022/01/27 03:24:01;;;;;;;9.05;4.07;;;18.70;49.60;;;;;;4398905;32;20229;-63
2022/01/27 03:26:27;;;;;;;6.72;3.90;;;18.60;49.60;;;;;;4384836;32;20139;-63
2022/01/27 03:28:54;;;;;;;8.82;4.47;;;18.60;49.60;;;;;;4398827;32;20075;-63
2022/01/27 03:31:21;;;;;;;7.55;4.22;;;18.60;49.50;;;;;;4398709;32;20289;-63
2022/01/27 03:33:47;;;;;;;6.88;4.30;;;18.60;49.50;;;;;;4398279;32;20079;-63
2022/01/27 03:36:13;;;;;;;7.07;4.40;;;18.60;49.50;;;;;;4385099;32;20173;-63
2022/01/27 03:38:40;;;;;;;6.65;4.10;;;18.60;49.50;;;;;;4398413;32;20565;-63
2022/01/27 03:41:08;;;;;;;7.55;4.90;;;18.60;49.60;;;;;;4398432;32;20075;-63
2022/01/27 03:43:36;;;;;;;9.18;4.40;;;18.60;49.50;;;;;;4397955;32;20094;-63
2022/01/27 03:46:03;;;;;;;7.50;4.38;;;18.60;49.60;;;;;;4398672;32;20545;-63
2022/01/27 03:48:29;;;;;;;7.95;3.88;;;18.60;49.60;;;;;;4398046;32;20105;-63
2022/01/27 03:50:55;;;;;;;10.15;5.13;;;18.60;49.60;;;;;;4398883;32;20701;-63
2022/01/27 03:53:21;;;;;;;7.75;4.80;;;18.50;49.50;;;;;;4398765;32;20093;-63
2022/01/27 03:55:48;;;;;;;6.65;4.22;;;18.50;49.50;;;;;;4398297;32;20414;-63
2022/01/27 03:58:14;;;;;;;7.55;4.15;;;18.50;49.50;;;;;;4398594;32;20220;-63
2022/01/27 04:00:41;;;;;;;7.50;4.07;;;18.50;49.50;;;;;;4384437;32;20143;-63
2022/01/27 04:03:09;;;;;;;9.55;4.70;;;18.50;49.50;;;;;;4398858;32;20091;-63
2022/01/27 04:05:40;;;;;;;9.70;4.97;;;18.50;49.50;;;;;;4398263;32;20141;-63
2022/01/27 04:08:08;;;;;;;5.35;3.63;;;18.50;49.50;;;;;;4398748;32;20179;-63
2022/01/27 04:10:35;;;;;;;7.75;4.60;;;18.50;49.50;;;;;;4398346;32;20067;-63
2022/01/27 04:13:02;;;;;;;8.30;4.57;;;18.40;49.40;;;;;;4398687;32;20075;-63
2022/01/27 04:15:28;;;;;;;7.10;4.28;;;18.40;49.50;;;;;;4398127;32;20194;-63
2022/01/27 04:17:53;;;;;;;10.93;4.68;;;18.40;49.50;;;;;;4398375;32;20059;-63
2022/01/27 04:20:20;;;;;;;7.05;4.30;;;18.40;49.40;;;;;;4398279;32;20193;-63
2022/01/27 04:22:46;;;;;;;7.32;4.50;;;18.40;49.50;;;;;;4398202;32;20103;-63
2022/01/27 04:25:13;;;;;;;9.63;4.57;;;18.40;49.50;;;;;;4398255;32;20486;-63
2022/01/27 04:27:43;;;;;;;7.95;4.10;;;18.40;49.50;;;;;;4396888;32;20442;-63
2022/01/27 04:30:18;;;;;;;10.85;5.10;;;18.40;49.50;;;;;;4397439;32;20290;-63
2022/01/27 04:32:55;;;;;;;7.10;4.63;;;18.40;49.50;;;;;;4398026;32;20504;-63
2022/01/27 04:35:24;;;;;;;7.28;4.22;;;18.40;49.50;;;;;;4398254;32;20083;-63
2022/01/27 04:40:34;;;;;;;8.85;4.28;;;18.40;49.60;;;;;;4397887;32;20506;-63
2022/01/27 04:43:18;;;;;;;8.73;3.90;;;18.40;49.60;;;;;;4398473;32;20271;-63
2022/01/27 04:48:35;;;;;;;8.50;4.10;;;18.30;49.60;;;;;;4397902;32;20209;-63
2022/01/27 04:51:06;;;;;;;7.97;4.50;;;18.30;49.60;;;;;;4398029;32;20071;-63
2022/01/27 04:53:37;;;;;;;6.75;3.97;;;18.30;49.60;;;;;;4398188;32;20067;-63
2022/01/27 04:56:04;;;;;;;7.43;4.20;;;18.30;49.70;;;;;;4398248;32;20517;-63
2022/01/27 04:58:33;;;;;;;8.98;3.85;;;18.30;49.60;;;;;;4397986;32;20298;-63
2022/01/27 05:01:02;;;;;;;6.60;3.95;;;18.30;49.70;;;;;;4397498;32;20286;-63
2022/01/27 05:05:58;;;;;;;7.47;3.92;;;18.30;49.70;;;;;;4384050;32;20095;-63
2022/01/27 05:08:25;;;;;;;8.13;4.18;;;18.30;49.80;;;;;;4397795;32;20579;-63
2022/01/27 05:11:16;;;;;;;6.55;4.28;;;18.30;49.80;;;;;;4397489;32;20097;-63
2022/01/27 05:14:04;;;;;;;9.65;4.70;;;18.30;49.80;;;;;;4397698;32;20138;-63
2022/01/27 05:16:28;;;;;;;7.68;4.18;;;18.20;49.70;;;;;;4397536;32;20426;-63
2022/01/27 05:18:54;;;;;;;8.10;3.90;;;18.20;49.80;;;;;;4383650;32;20097;-64
2022/01/27 05:21:21;;;;;;;6.90;4.20;;;18.20;49.80;;;;;;4384104;32;20123;-64
2022/01/27 05:23:47;;;;;;;7.38;4.00;;;18.20;49.80;;;;;;4397666;32;20089;-63
2022/01/27 05:26:13;;;;;;;6.57;3.40;;;18.20;49.90;;;;;;4398008;32;20071;-63
2022/01/27 05:28:39;;;;;;;5.97;3.85;;;18.20;49.90;;;;;;4398648;32;20157;-63
2022/01/27 05:31:05;;;;;;;8.00;4.30;;;18.20;49.90;;;;;;4400838;32;20083;-63
2022/01/27 05:33:32;;;;;;;7.63;4.10;;;18.20;49.90;;;;;;4400563;32;20098;-63
2022/01/27 05:35:58;;;;;;;6.15;3.40;;;18.20;50.00;;;;;;4400392;32;20623;-63
2022/01/27 05:38:24;;;;;;;7.72;4.05;;;18.20;49.90;;;;;;4400475;32;20523;-63
2022/01/27 05:40:50;;;;;;;7.93;4.07;;;18.20;50.00;;;;;;4399938;32;20129;-63
2022/01/27 05:43:16;;;;;;;8.88;3.80;;;18.10;50.00;;;;;;4400505;32;20055;-64
2022/01/27 05:45:42;;;;;;;6.30;3.60;;;18.10;50.20;;;;;;4400153;32;20083;-63
2022/01/27 05:48:08;;;;;;;7.30;4.22;;;18.10;50.00;;;;;;4386691;32;20137;-63
2022/01/27 05:50:34;;;;;;;6.53;3.83;;;18.10;50.00;;;;;;4386393;32;20221;-63
2022/01/27 05:53:00;;;;;;;7.15;3.60;;;18.10;50.00;;;;;;4400023;32;20210;-63
2022/01/27 05:55:26;;;;;;;7.05;4.00;;;18.10;50.00;;;;;;4400174;32;20087;-63
2022/01/27 05:57:52;;;;;;;6.88;3.78;;;18.10;50.00;;;;;;4373870;32;20580;-63
2022/01/27 06:00:19;;;;;;;8.60;3.85;;;18.10;50.00;;;;;;4400061;32;20094;-63
2022/01/27 06:02:45;;;;;;;6.68;3.55;;;18.10;50.10;;;;;;4399919;32;20090;-63
2022/01/27 06:05:12;;;;;;;7.13;3.88;;;18.10;50.10;;;;;;4386753;32;20071;-63
2022/01/27 06:07:44;;;;;;;6.53;3.58;;;18.10;50.10;;;;;;4400077;32;20081;-63
2022/01/27 06:10:11;;;;;;;5.53;3.38;;;18.10;50.10;;;;;;4399772;32;20091;-63
2022/01/27 06:12:51;;;;;;;6.68;3.60;;;18.00;50.10;;;;;;4400322;32;20079;-63
2022/01/27 06:15:20;;;;;;;8.60;3.78;;;18.00;50.10;;;;;;4399596;32;20071;-63
2022/01/27 06:17:46;;;;;;;8.00;3.63;;;18.00;50.20;;;;;;4385930;32;20170;-64
2022/01/27 06:20:12;;;;;;;12.05;4.28;;;18.00;50.20;;;;;;4398806;32;20095;-63
2022/01/27 06:22:38;;;;;;;7.75;4.10;;;18.00;50.20;;;;;;4399758;32;20137;-63
2022/01/27 06:25:04;;;;;;;6.25;3.63;;;18.00;50.20;;;;;;4399492;32;20692;-63
2022/01/27 06:27:30;;;;;;;6.28;3.30;;;18.00;50.30;;;;;;4399828;32;20126;-64
2022/01/27 06:29:56;;;;;;;9.20;3.92;;;18.00;50.30;;;;;;4399624;32;20071;-63
2022/01/27 06:32:22;;;;;;;6.63;3.40;;;18.00;50.30;;;;;;4399818;32;20079;-63
2022/01/27 06:34:48;;;;;;;6.80;3.40;;;18.00;50.30;;;;;;4385775;32;20126;-63
2022/01/27 06:37:14;;;;;;;6.53;3.55;;;18.00;50.30;;;;;;4399694;32;20063;-63
2022/01/27 06:39:40;;;;;;;7.32;4.10;;;18.00;50.30;;;;;;4398628;32;20133;-64
2022/01/27 06:42:07;;;;;;;6.65;3.60;;;17.90;51.20;;;;;;4398842;32;20384;-64
2022/01/27 06:44:34;;;;;;;6.15;3.63;;;17.90;50.30;;;;;;4399879;32;20482;-63
2022/01/27 06:47:00;;;;;;;7.07;3.65;;;17.90;50.30;;;;;;4398961;32;20533;-64
2022/01/27 06:49:26;;;;;;;5.65;3.35;;;17.90;50.30;;;;;;4399732;32;20078;-64
2022/01/27 06:51:52;;;;;;;5.45;3.45;;;17.90;50.30;;;;;;4399387;32;20383;-64
2022/01/27 06:54:18;;;;;;;5.78;3.53;;;17.90;50.40;;;;;;4399166;32;20189;-63
2022/01/27 06:56:45;;;;;;;10.80;3.70;;;17.90;50.40;;;;;;4399109;32;20064;-63
2022/01/27 06:59:11;;;;;;;7.63;3.55;;;17.90;50.40;;;;;;4399093;32;20107;-63
2022/01/27 07:01:39;;;;;;;7.00;3.28;;;17.90;50.50;;;;;;4385521;32;20122;-63
2022/01/27 07:04:05;;;;;;;5.50;3.22;;;17.90;50.50;;;;;;4399101;32;20137;-63
2022/01/27 07:06:33;;;;;;;7.18;3.83;;;17.90;50.50;;;;;;4399116;32;20129;-63
2022/01/27 07:08:59;;;;;;;6.50;3.85;;;17.90;50.50;;;;;;4385351;32;20161;-63
2022/01/27 07:11:26;;;;;;;7.95;3.42;;;17.90;50.50;;;;;;4399196;32;20093;-63
2022/01/27 07:13:51;;;;;;;7.10;3.30;;;17.90;50.50;;;;;;4398797;32;20470;-63
2022/01/27 07:16:18;;;;;;;7.05;3.47;;;17.90;50.50;;;;;;4398995;32;20063;-63
2022/01/27 07:18:43;;;;;;;5.82;3.42;;;17.90;50.50;;;;;;4399068;32;20075;-63
2022/01/27 07:21:09;;;;;;;7.57;3.45;;;17.90;50.60;;;;;;4398840;32;20074;-64
2022/01/27 07:23:35;;;;;;;6.00;3.03;;;17.80;50.50;;;;;;4399302;32;20217;-63
2022/01/27 07:26:02;;;;;;;5.78;3.20;;;17.80;50.50;;;;;;4398395;32;20205;-63
2022/01/27 07:28:27;;;;;;;7.78;3.83;;;17.80;50.60;;;;;;4398842;32;20067;-63
2022/01/27 07:30:53;;;;;;;5.38;3.25;;;17.80;50.60;;;;;;4398640;32;20157;-63
2022/01/27 07:33:19;;;;;;;6.57;2.97;;;17.80;51.60;;;;;;4399050;32;20059;-63
2022/01/27 07:35:45;;;;;;;5.68;3.13;;;17.80;50.70;;;;;;4398849;32;20059;-63
2022/01/27 07:38:11;;;;;;;4.55;2.72;;;17.80;50.60;;;;;;4398671;32;20236;-63
2022/01/27 07:40:37;;;;;;;6.22;3.20;;;17.80;50.60;;;;;;4398740;32;20071;-63
2022/01/27 07:43:03;;;;;;;6.63;3.38;;;17.80;50.70;;;;;;4398486;32;20589;-63
2022/01/27 07:45:29;;;;;;;5.85;3.05;;;17.80;50.70;;;;;;4398819;32;20083;-63
2022/01/27 07:47:55;;;;;;;5.32;2.55;;;17.80;50.70;;;;;;4384741;32;20138;-63
2022/01/27 07:50:22;;;;;;;6.00;3.10;;;17.70;50.70;;;;;;4398682;32;20173;-63
2022/01/27 07:52:47;;;;;;;5.93;3.20;;;17.70;50.60;;;;;;4398289;32;20510;-63
2022/01/27 07:55:13;;;;;;;6.50;3.55;;;17.70;50.60;;;;;;4397890;32;20111;-63
2022/01/27 07:57:39;;;;;;;6.82;3.22;;;17.80;50.80;;;;;;4398227;32;20082;-63
2022/01/27 08:00:07;;;;;;;6.85;3.15;;;17.70;50.70;;;;;;4384477;32;20071;-63
2022/01/27 08:02:33;;;;;;;6.20;3.00;;;17.70;50.70;;;;;;4398077;32;20078;-63
2022/01/27 08:04:59;;;;;;;8.60;3.67;;;17.70;50.70;;;;;;4398299;32;20063;-63
2022/01/27 08:07:25;;;;;;;5.93;3.00;;;17.70;50.70;;;;;;4398660;32;20217;-63
2022/01/27 08:09:51;;;;;;;3.95;2.58;;;17.70;50.80;;;;;;4398434;32;20178;-63
2022/01/27 08:12:17;;;;;;;6.47;2.80;;;17.70;50.70;;;;;;4398086;32;20485;-63
2022/01/27 08:14:43;;;;;;;6.80;3.10;;;17.70;50.70;;;;;;4398436;32;20130;-64
2022/01/27 08:17:09;;;;;;;16.05;3.17;;;17.70;50.80;;;;;;4398065;32;20193;-64
2022/01/27 08:19:35;;;;;;;11.55;3.40;;;17.70;50.80;;;;;;4398548;32;20387;-64
2022/01/27 08:22:01;;;;;;;9.88;3.55;;;17.70;50.80;;;;;;4398325;32;20205;-63
2022/01/27 08:24:27;;;;;;;8.77;3.38;;;17.70;51.00;;;;;;4398462;32;20063;-63
2022/01/27 08:26:58;;;;;;;10.02;3.88;;;17.70;50.90;;;;;;4398412;32;20489;-63
2022/01/27 08:29:42;;;;;;;8.50;3.47;;;17.70;51.00;;;;;;4398030;32;20087;-63
2022/01/27 08:32:15;;;;;;;10.63;4.00;;;17.70;51.00;;;;;;4397829;32;20079;-63
2022/01/27 08:34:42;;;;;;;9.13;2.92;;;17.70;50.90;;;;;;4398073;32;20135;-63
2022/01/27 08:37:10;;;;;;;11.35;3.47;;;17.70;51.00;;;;;;4397840;32;20229;-63
2022/01/27 08:39:38;;;;;;;10.15;3.20;;;17.70;50.90;;;;;;4384721;32;20071;-63
2022/01/27 08:42:06;;;;;;;10.63;2.97;;;17.80;50.90;;;;;;4383460;32;20115;-63
2022/01/27 08:44:32;;;;;;;8.38;3.00;;;17.80;50.90;;;;;;4384291;32;20098;-63
2022/01/27 08:46:58;;;;;;;13.80;3.30;;;17.90;50.90;;;;;;4398302;32;20067;-63
2022/01/27 08:49:26;;;;;;;13.30;3.42;;;17.90;50.80;;;;;;4397688;32;20209;-63
2022/01/27 08:51:53;;;;;;;11.00;3.30;;;18.00;50.80;;;;;;4397662;32;20638;-63
2022/01/27 08:54:19;;;;;;;10.98;3.33;;;18.00;50.80;;;;;;4397947;32;20099;-64
2022/01/27 08:56:45;;;;;;;12.13;4.15;;;18.10;50.80;;;;;;4398239;32;20064;-63
2022/01/27 08:59:11;;;;;;;9.55;3.17;;;18.10;50.80;;;;;;4384248;32;20111;-63
2022/01/27 09:01:38;;;;;;;10.25;3.08;;;18.10;50.70;;;;;;4397942;32;20090;-63
2022/01/27 09:04:05;;;;;;;10.48;2.83;;;18.20;50.50;;;;;;4398982;32;20113;-63
2022/01/27 09:06:30;;;;;;;8.70;3.05;;;18.30;50.30;;;;;;4401072;32;20107;-63
2022/01/27 09:09:07;;;;;;;12.45;2.90;;;18.40;50.00;;;;;;4401118;32;20172;-63
2022/01/27 09:11:34;;;;;;;8.15;2.67;;;18.60;49.80;;;;;;4401296;32;20462;-64
2022/01/27 09:14:03;;;;;;;9.95;3.30;;;18.60;49.60;;;;;;4401045;32;20097;-63
2022/01/27 09:16:30;;;;;;;9.85;2.55;;;18.80;49.40;;;;;;4400758;32;20388;-63
2022/01/27 09:18:58;;;;;;;8.63;2.83;;;18.90;49.10;;;;;;4401238;32;20079;-63
2022/01/27 09:21:27;;;;;;;11.30;3.35;;;19.00;48.90;;;;;;4400644;32;20150;-63
2022/01/27 09:23:54;;;;;;;6.90;2.60;;;19.00;48.70;;;;;;4401112;32;20148;-63
2022/01/27 09:27:00;;;;;;;7.95;2.72;;;19.20;48.50;;;;;;4400506;32;20189;-63
2022/01/27 09:29:13;;;;;;;9.63;2.70;;;19.20;48.30;;;;;;4398744;32;20587;-63
2022/01/27 09:31:39;;;;;;;9.73;2.80;;;19.40;48.30;;;;;;4400297;32;20087;-63
2022/01/27 09:34:04;;;;;;;8.43;2.67;;;19.40;48.20;;;;;;4400412;32;20273;-64
2022/01/27 09:36:30;;;;;;;8.05;2.30;;;19.50;48.10;;;;;;4400731;32;20565;-63
2022/01/27 09:38:56;;;;;;;8.55;2.60;;;19.50;48.00;;;;;;4400701;32;20086;-64
2022/01/27 09:41:24;;;;;;;7.70;2.20;;;19.60;48.00;;;;;;4400561;32;20083;-63
2022/01/27 09:43:53;;;;;;;11.27;3.08;;;19.70;47.90;;;;;;4400388;32;20067;-63
2022/01/27 09:46:23;;;;;;;9.02;2.83;;;19.80;47.90;;;;;;4400311;32;20542;-63
2022/01/27 09:48:50;;;;;;;8.18;2.65;;;19.90;48.90;;;;;;4400487;32;20063;-63
2022/01/27 09:53:50;;;;;;;7.63;2.95;;;20.00;47.60;;;;;;4399382;32;20613;-64
2022/01/27 09:56:17;;;;;;;11.27;2.42;;;20.10;47.60;;;;;;4399487;32;20541;-63
2022/01/27 09:58:43;;;;;;;9.25;2.65;;;20.20;47.50;;;;;;4399312;32;20526;-63
2022/01/27 10:01:09;;;;;;;9.68;2.65;;;20.20;47.30;;;;;;4399582;32;20099;-64
2022/01/27 10:03:52;;;;;;;10.50;2.38;;;20.30;47.20;;;;;;4399457;32;20154;-64
2022/01/27 10:06:21;;;;;;;9.25;2.78;;;20.40;47.30;;;;;;4400276;32;20075;-64
2022/01/27 10:09:30;;;;;;;10.15;2.72;;;20.50;47.10;;;;;;4400577;32;20514;-63
2022/01/27 10:12:02;;;;;;;15.07;3.03;;;20.60;47.00;;;;;;4400351;32;20083;-64
2022/01/27 10:14:35;;;;;;;6.07;2.50;;;20.60;46.90;;;;;;4400116;32;20071;-63
2022/01/27 10:17:04;;;;;;;;;;;20.70;46.80;;;;;;4400893;32;20134;-63
2022/01/27 10:19:30;;;;;;;6.63;2.40;;;20.80;46.80;;;;;;4399897;32;20374;-63
2022/01/27 10:22:06;;;;;;;8.07;2.38;;;20.90;46.60;;;;;;4400029;32;20086;-63
2022/01/27 10:24:34;;;;;;;7.30;2.42;;;20.90;46.50;;;;;;4400157;32;20608;-64
2022/01/27 10:32:59;;;;;;;7.50;2.15;;;21.10;46.20;;;;;;4399731;32;20127;-63
2022/01/27 10:35:26;;;;;;;9.75;2.60;;;21.20;46.20;;;;;;4398676;32;20189;-63
2022/01/27 10:37:59;;;;;;;9.90;2.28;;;21.30;46.10;;;;;;4390610;32;20186;-64
2022/01/27 10:40:29;;;;;;;8.55;2.83;;;21.30;46.00;;;;;;4384575;32;20243;-63
2022/01/27 10:43:20;;;;;;;8.23;2.28;;;21.40;46.00;;;;;;4384375;32;20083;-63
2022/01/27 10:46:08;;;;;;;8.82;2.28;;;21.40;46.00;;;;;;4378983;32;20289;-63
2022/01/27 10:48:40;;;;;;;11.00;2.53;;;21.50;45.80;;;;;;4384235;32;20170;-64
2022/01/27 10:51:15;;;;;;;6.70;2.30;;;21.60;45.70;;;;;;4384857;32;20443;-63
2022/01/27 10:53:45;;;;;;;11.40;2.67;;;21.60;46.50;;;;;;4384335;32;20514;-63
2022/01/27 10:56:22;;;;;;;10.80;2.63;;;21.70;45.50;;;;;;4384435;32;20245;-63
2022/01/27 10:58:49;;;;;;;7.03;2.35;;;21.70;45.40;;;;;;4370604;32;20157;-63
2022/01/27 11:01:21;;;;;;;10.45;2.83;;;21.70;45.20;;;;;;4384060;32;20083;-63
2022/01/27 11:03:52;;;;;;;9.10;2.22;;;21.70;45.20;;;;;;4382436;32;20095;-63
2022/01/27 11:06:24;;;;;;;12.27;2.97;;;21.70;45.10;;;;;;4397309;32;20656;-63
2022/01/27 11:08:56;;;;;;;12.60;3.03;;;21.80;45.10;;;;;;4399686;32;20493;-63
2022/01/27 11:11:23;;;;;;;8.30;2.70;;;21.80;45.00;;;;;;4399120;32;20254;-63
2022/01/27 11:13:51;;;;;;;10.05;2.80;;;21.80;44.80;;;;;;4399012;32;20142;-63
2022/01/27 11:16:22;;;;;;;9.00;2.70;;;21.80;44.80;;;;;;4399105;32;20533;-64
2022/01/27 11:18:48;;;;;;;9.73;3.03;;;21.80;44.80;;;;;;4399262;32;20094;-64
2022/01/27 11:21:33;;;;;;;12.13;3.55;;;21.80;44.80;;;;;;4398911;32;20091;-63
2022/01/27 11:24:08;;;;;;;16.40;2.95;;;21.70;44.90;;;;;;4399307;32;20087;-63
2022/01/27 11:26:40;;;;;;;11.00;2.88;;;21.60;45.00;;;;;;4398571;32;20600;-63
2022/01/27 11:29:08;;;;;;;9.85;2.95;;;21.50;45.20;;;;;;4399014;32;20077;-63
2022/01/27 11:32:11;;;;;;;11.73;2.78;;;21.50;45.50;;;;;;4399094;32;20079;-63
2022/01/27 11:34:48;;;;;;;9.75;2.30;;;21.30;45.70;;;;;;4398052;32;20085;-63
2022/01/27 11:37:18;;;;;;;9.77;2.83;;;21.20;46.00;;;;;;4398830;32;20608;-63
2022/01/27 11:39:55;;;;;;;12.45;2.53;;;21.10;46.20;;;;;;4399205;32;20087;-63
2022/01/27 11:42:56;;;;;;;9.98;2.72;;;21.00;46.50;;;;;;4398691;32;20138;-63
2022/01/27 11:45:29;;;;;;;10.82;3.08;;;20.90;46.70;;;;;;4383847;32;20115;-63
2022/01/27 11:48:01;;;;;;;11.25;3.13;;;20.80;47.00;;;;;;4399023;32;20212;-63
2022/01/27 11:50:35;;;;;;;10.90;2.75;;;20.80;47.10;;;;;;4398673;32;20075;-63
2022/01/27 11:53:03;;;;;;;11.77;2.88;;;20.70;47.20;;;;;;4398700;32;20213;-63
2022/01/27 11:55:37;;;;;;;10.10;2.90;;;20.60;47.30;;;;;;4398311;32;20075;-63
2022/01/27 11:58:11;;;;;;;7.65;2.65;;;20.70;47.40;;;;;;4399058;32;20075;-63
2022/01/27 12:00:39;;;;;;;11.48;2.80;;;20.60;47.50;;;;;;4398142;32;20121;-63
2022/01/27 12:03:10;;;;;;;13.57;2.90;;;20.60;47.50;;;;;;4398448;32;20071;-63
2022/01/27 12:05:41;;;;;;;6.70;2.80;;;20.60;47.60;;;;;;4398784;32;20074;-63
2022/01/27 12:08:13;;;;;;;10.63;2.78;;;20.60;47.60;;;;;;4398828;32;20079;-63
2022/01/27 12:10:51;;;;;;;9.77;2.50;;;20.60;47.70;;;;;;4398467;32;20079;-63
2022/01/27 12:13:27;;;;;;;11.30;2.65;;;20.60;47.80;;;;;;4398449;32;20082;-63
2022/01/27 12:19:02;;;;;;;9.55;2.80;;;20.50;47.80;;;;;;4398214;32;20090;-63
2022/01/27 12:21:50;;;;;;;14.65;2.95;;;20.50;47.80;;;;;;4398504;32;20103;-63
2022/01/27 12:24:28;;;;;;;15.18;3.35;;;20.50;47.90;;;;;;4398668;32;20089;-63
2022/01/27 12:27:18;;;;;;;14.50;3.05;;;20.50;48.00;;;;;;4398484;32;20532;-63
2022/01/27 12:29:49;;;;;;;13.27;3.03;;;20.50;48.10;;;;;;4398317;32;20157;-63
2022/01/27 12:32:41;;;;;;;13.43;3.42;;;20.50;48.10;;;;;;4397876;32;20091;-63
2022/01/27 12:35:13;;;;;;;13.40;3.15;;;20.50;48.20;;;;;;4395811;32;20513;-63
2022/01/27 12:37:41;;;;;;;12.45;3.28;;;20.50;48.30;;;;;;4398482;32;20091;-63
2022/01/27 12:40:21;;;;;;;16.92;3.33;;;20.50;48.30;;;;;;4401034;32;20236;-63
2022/01/27 12:43:11;;;;;;;12.15;3.10;;;20.50;48.30;;;;;;4400298;32;20071;-64
2022/01/27 12:45:38;;;;;;;13.48;3.35;;;20.50;48.30;;;;;;4400193;32;20103;-63
2022/01/27 12:48:11;;;;;;;13.30;3.50;;;20.60;48.30;;;;;;4400617;32;20184;-63
2022/01/27 12:50:37;;;;;;;14.53;3.03;;;20.50;48.30;;;;;;4400610;32;20082;-64
2022/01/27 12:53:11;;;;;;;19.85;3.25;;;20.50;48.30;;;;;;4399906;32;20202;-64
2022/01/27 12:55:42;;;;;;;11.95;2.78;;;20.50;48.30;;;;;;4382559;32;24592;-63
2022/01/27 12:58:13;;;;;;;13.85;3.35;;;20.50;48.40;;;;;;4401089;32;20067;-63
2022/01/27 13:00:50;;;;;;;19.83;3.47;;;20.50;48.50;;;;;;4400821;32;20174;-63
2022/01/27 13:03:17;;;;;;;14.73;3.17;;;20.50;48.60;;;;;;4400369;32;20091;-63
2022/01/27 13:05:47;;;;;;;12.50;3.05;;;20.50;48.70;;;;;;4395848;32;20090;-63
2022/01/27 13:08:17;;;;;;;12.77;2.70;;;20.50;48.70;;;;;;4394557;32;20110;-63
2022/01/27 13:10:54;;;;;;;13.77;3.05;;;20.50;48.70;;;;;;4400742;32;20087;-63
2022/01/27 13:13:24;;;;;;;15.45;3.03;;;20.50;48.70;;;;;;4400732;32;20097;-63
2022/01/27 13:16:05;;;;;;;12.85;3.22;;;20.50;48.80;;;;;;4400153;32;20075;-63
2022/01/27 13:18:48;;;;;;;11.93;2.95;;;20.50;48.80;;;;;;4400788;32;20516;-63
2022/01/27 13:21:26;;;;;;;11.43;2.95;;;20.50;48.70;;;;;;4400432;32;20067;-63
2022/01/27 13:24:16;;;;;;;11.38;3.22;;;20.50;48.70;;;;;;4399707;32;20129;-63
2022/01/27 13:26:45;;;;;;;13.68;3.15;;;20.50;48.80;;;;;;4400255;32;20156;-63
2022/01/27 13:29:17;;;;;;;10.52;2.80;;;20.50;48.90;;;;;;4400313;32;20091;-63
2022/01/27 13:31:44;;;;;;;20.65;3.35;;;20.50;48.90;;;;;;4400512;32;20520;-63
2022/01/27 13:34:10;;;;;;;16.33;3.13;;;20.60;48.90;;;;;;4400022;32;20089;-63
2022/01/27 13:36:37;;;;;;;23.75;3.65;;;20.60;49.00;;;;;;4400582;32;20067;-64
2022/01/27 13:39:24;;;;;;;18.98;3.17;;;20.60;49.00;;;;;;4400189;32;20063;-63
2022/01/27 13:41:50;;;;;;;21.75;4.00;;;20.60;49.20;;;;;;4399856;32;20086;-64
2022/01/27 13:44:18;;;;;;;17.52;2.90;;;20.60;49.10;;;;;;4398972;32;20437;-63
2022/01/27 13:46:57;;;;;;;14.45;3.33;;;20.60;49.20;;;;;;4398920;32;20189;-64
2022/01/27 13:49:32;;;;;;;21.13;3.50;;;20.60;49.40;;;;;;4398638;32;20090;-63